• Join FlightAware (Why Join?)
  • Login
  • US Flag 
10:47AM EDT


 

Airport Tracker/Info


-or-


 

Live Flight TrackerFlight Track Log ✈ TAM3376 ✈ 13-Jul-2013 ✈ SBGR / GRU - SBVT / VIX

Flight Track Log - Related Links

Times and Time Zones

All times are in EDT time to prevent confusion due to time zone crossing. See the TAM3376 flight status page for this flight to view local times or setup timezone preferences in your user account.

Time Position Orientation Groundspeed Altitude Reporting Facility
EDT Latitude Longitude Course Direction KTS MPH feet Rate Location/Type
03:09PM -22.3207 -44.2206 62° Northeast  Level Estimated
03:10PM -22.2738 -44.1277 61° Northeast  Level Estimated
03:11PM -22.2267 -44.0348 61° Northeast  Level Estimated
03:12PM -22.1796 -43.9420 61° Northeast  Level Estimated
03:13PM -22.1325 -43.8493 61° Northeast  Level Estimated
03:14PM -22.0853 -43.7566 61° Northeast  Level Estimated
03:15PM -22.0380 -43.6640 61° Northeast  Level Estimated
03:16PM -21.9907 -43.5715 61° Northeast  Level Estimated
03:17PM -21.9434 -43.4790 61° Northeast  Level Estimated
03:18PM -21.8960 -43.3866 61° Northeast  Level Estimated
03:19PM -21.8485 -43.2942 61° Northeast  Level Estimated
03:20PM -21.8010 -43.2020 61° Northeast  Level Estimated
03:21PM -21.7535 -43.1097 61° Northeast  Level Estimated
03:22PM -21.7059 -43.0176 61° Northeast  Level Estimated
03:23PM -21.6582 -42.9254 61° Northeast  Level Estimated
03:24PM -21.6105 -42.8334 61° Northeast  Level Estimated
03:25PM -21.5627 -42.7414 61° Northeast  Level Estimated
03:26PM -21.5149 -42.6495 61° Northeast  Level Estimated
03:27PM -21.4671 -42.5576 61° Northeast  Level Estimated
03:28PM -21.4192 -42.4658 61° Northeast  Level Estimated
03:29PM -21.3712 -42.3740 61° Northeast  Level Estimated
03:30PM -21.3232 -42.2823 61° Northeast  Level Estimated
03:31PM -21.2751 -42.1907 61° Northeast  Level Estimated
03:32PM -21.2270 -42.0992 61° Northeast  Level Estimated
03:33PM -21.1789 -42.0076 61° Northeast  Level Estimated
03:34PM -21.1306 -41.9162 61° Northeast  Level Estimated
03:35PM -21.0824 -41.8248 61° Northeast  Level Estimated
03:36PM -21.0341 -41.7335 60° Northeast  Level Estimated
03:37PM -20.9857 -41.6422 60° Northeast  Level Estimated
03:38PM -20.9373 -41.5510 60° Northeast  Level Estimated
03:39PM -20.8889 -41.4598 60° Northeast  Level Estimated
03:40PM -20.8404 -41.3688 60° Northeast  Level Estimated
03:41PM -20.7918 -41.2777 60° Northeast  Level Estimated
03:42PM -20.7432 -41.1867 60° Northeast  Level Estimated
03:43PM -20.6946 -41.0958 60° Northeast  Level Estimated
03:44PM -20.6459 -41.0050 60° Northeast  Level Estimated
03:45PM -20.5972 -40.9142 60° Northeast  Level Estimated
03:46PM -20.5484 -40.8234 60° Northeast  Level Estimated
03:47PM -20.4995 -40.7327 60° Northeast  Level Estimated
03:48PM -20.4507 -40.6421 60° Northeast  Level Estimated
03:49PM -20.4017 -40.5515 60° Northeast  Level Estimated
03:50PM -20.3528 -40.4610 60° Northeast  Level Estimated
03:51PM -20.3037 -40.3706 60° Northeast  Level Estimated
03:52PM -20.2581 -40.2864 60° Northeast  Level Estimated
03:53PM -20.2581 -40.2864 13° North  Level Estimated
03:54PM -20.2581 -40.2864 13° North  Level Estimated
03:55PM -20.2581 -40.2864 13° North  Level Estimated
03:56PM -20.2581 -40.2864 13° North  Level Estimated
03:57PM -20.2581 -40.2864 13° North  Level Estimated
03:58PM -20.2581 -40.2864 13° North  Level Estimated
03:59PM -20.2581 -40.2864 13° North  Level Estimated
04:00PM -20.2581 -40.2864 13° North  Level Estimated
04:01PM -20.2581 -40.2864 13° North  Level Estimated
04:02PM -20.2581 -40.2864 13° North  Level Estimated
04:03PM -20.2581 -40.2864 13° North  Level Estimated
04:04PM -20.2581 -40.2864 13° North  Level Estimated
04:05PM -20.2581 -40.2864 13° North  Level Estimated
04:06PM -20.2581 -40.2864 13° North  Level Estimated
04:07PM -20.2581 -40.2864 13° North  Level Estimated
04:08PM -20.2581 -40.2864 13° North  Level Estimated